createdAt,value
2023-05-02T00:02:08.754Z,14.58
2023-05-02T00:04:39.798Z,14.68
2023-05-02T00:07:10.369Z,14.71
2023-05-02T00:09:41.076Z,14.61
2023-05-02T00:12:11.596Z,14.55
2023-05-02T00:14:42.176Z,14.43
2023-05-02T00:17:21.460Z,14.22
2023-05-02T00:19:52.121Z,13.99
2023-05-02T00:22:23.391Z,14.08
2023-05-02T00:24:54.266Z,14.08
2023-05-02T00:27:24.853Z,14.10
2023-05-02T00:29:55.411Z,14.04
2023-05-02T00:32:28.983Z,14.13
2023-05-02T00:34:59.446Z,14.28
2023-05-02T00:37:31.203Z,14.14
2023-05-02T00:40:02.599Z,14.05
2023-05-02T00:42:34.911Z,13.94
2023-05-02T00:45:07.031Z,13.85
2023-05-02T00:47:40.581Z,13.76
2023-05-02T00:50:12.452Z,13.75
2023-05-02T00:52:43.045Z,13.79
2023-05-02T00:55:13.724Z,13.80
2023-05-02T00:57:44.375Z,13.69
2023-05-02T01:00:17.186Z,13.88
2023-05-02T01:02:59.118Z,13.82
2023-05-02T01:05:38.943Z,13.70
2023-05-02T01:08:19.442Z,13.56
2023-05-02T01:10:56.973Z,13.61
2023-05-02T01:13:33.830Z,13.58
2023-05-02T01:16:06.606Z,13.60
2023-05-02T01:18:45.206Z,13.71
2023-05-02T01:21:15.971Z,13.88
2023-05-02T01:24:00.630Z,13.83
2023-05-02T01:26:43.125Z,13.70
2023-05-02T01:29:18.691Z,13.82
2023-05-02T01:31:53.680Z,13.81
2023-05-02T01:34:26.625Z,13.69
2023-05-02T01:37:00.831Z,13.67
2023-05-02T01:39:32.057Z,13.70
2023-05-02T01:42:05.573Z,13.85
2023-05-02T01:44:40.876Z,13.82
2023-05-02T01:47:13.045Z,13.75
2023-05-02T01:49:46.157Z,13.79
2023-05-02T01:52:18.943Z,13.63
2023-05-02T01:54:49.906Z,13.43
2023-05-02T01:57:21.312Z,13.35
2023-05-02T01:59:54.617Z,13.15
2023-05-02T02:02:27.741Z,13.10
2023-05-02T02:04:59.653Z,13.16
2023-05-02T02:07:30.588Z,13.35
2023-05-02T02:10:00.988Z,13.31
2023-05-02T02:12:38.977Z,13.30
2023-05-02T02:15:30.817Z,13.25
2023-05-02T02:18:04.332Z,13.15
2023-05-02T02:20:36.278Z,13.01
2023-05-02T02:23:10.748Z,12.89
2023-05-02T02:25:41.610Z,12.88
2023-05-02T02:28:11.953Z,12.88
2023-05-02T02:30:45.061Z,12.84
2023-05-02T02:33:16.657Z,12.80
2023-05-02T02:36:03.668Z,12.80
2023-05-02T02:38:41.837Z,12.66
2023-05-02T02:41:19.163Z,12.69
2023-05-02T02:44:04.412Z,12.70
2023-05-02T02:46:54.251Z,12.72
2023-05-02T02:49:36.496Z,12.71
2023-05-02T02:52:14.316Z,12.79
2023-05-02T02:54:50.385Z,12.77
2023-05-02T02:57:35.126Z,12.77
2023-05-02T03:00:21.933Z,12.75
2023-05-02T03:02:59.098Z,12.73
2023-05-02T03:05:29.564Z,12.80
2023-05-02T03:08:04.700Z,12.87
2023-05-02T03:10:35.781Z,12.75
2023-05-02T03:13:06.332Z,12.72
2023-05-02T03:16:24.533Z,12.62
2023-05-02T03:18:58.098Z,12.64
2023-05-02T03:21:28.597Z,12.59
2023-05-02T03:24:01.673Z,12.58
2023-05-02T03:26:32.888Z,12.51
2023-05-02T03:29:03.735Z,12.42
2023-05-02T03:31:39.691Z,12.44
2023-05-02T03:34:16.793Z,12.30
2023-05-02T03:36:50.392Z,12.21
2023-05-02T03:39:21.019Z,12.09
2023-05-02T03:41:52.389Z,12.20
2023-05-02T03:44:28.443Z,12.18
2023-05-02T03:46:58.977Z,12.12
2023-05-02T03:49:33.139Z,12.03
2023-05-02T03:52:04.167Z,12.05
2023-05-02T03:54:38.083Z,12.20
2023-05-02T03:57:09.120Z,12.15
2023-05-02T03:59:41.857Z,12.18
2023-05-02T04:02:20.710Z,12.05
2023-05-02T04:04:55.548Z,12.08
2023-05-02T04:07:27.353Z,12.08
2023-05-02T04:10:03.264Z,12.10
2023-05-02T04:12:38.108Z,12.04
2023-05-02T04:15:10.786Z,11.99
2023-05-02T04:17:41.860Z,11.98
2023-05-02T04:20:16.988Z,12.01
2023-05-02T04:22:51.788Z,11.99
2023-05-02T04:25:22.347Z,12.04
2023-05-02T04:27:55.185Z,12.19
2023-05-02T04:30:27.287Z,12.23
2023-05-02T04:33:06.160Z,12.28
2023-05-02T04:35:43.213Z,12.34
2023-05-02T04:38:17.910Z,12.47
2023-05-02T04:40:50.137Z,12.49
2023-05-02T04:43:22.451Z,12.47
2023-05-02T04:46:00.113Z,12.64
2023-05-02T04:48:34.961Z,12.72
2023-05-02T04:51:09.533Z,12.77
2023-05-02T04:53:41.332Z,12.56
2023-05-02T04:56:12.274Z,12.63
2023-05-02T04:58:42.457Z,12.66
2023-05-02T05:01:14.324Z,12.61
2023-05-02T05:03:45.268Z,12.48
2023-05-02T05:06:19.627Z,12.53
2023-05-02T05:08:50.594Z,12.56
2023-05-02T05:11:21.201Z,12.59
2023-05-02T05:13:51.685Z,12.55
2023-05-02T05:16:22.719Z,12.61
2023-05-02T05:18:54.182Z,12.57
2023-05-02T05:21:27.458Z,12.57
2023-05-02T05:23:59.214Z,12.69
2023-05-02T05:26:32.293Z,12.72
2023-05-02T05:29:03.095Z,12.64
2023-05-02T05:31:39.959Z,12.64
2023-05-02T05:34:10.594Z,12.81
2023-05-02T05:36:44.454Z,12.72
2023-05-02T05:39:15.400Z,12.91
2023-05-02T05:41:47.538Z,12.87
2023-05-02T05:44:18.152Z,12.96
2023-05-02T05:46:48.791Z,12.93
2023-05-02T05:49:19.882Z,12.94
2023-05-02T05:51:53.751Z,13.08
2023-05-02T05:54:24.473Z,13.25
2023-05-02T05:56:54.910Z,13.29
2023-05-02T05:59:25.792Z,13.33
2023-05-02T06:01:57.765Z,13.39
2023-05-02T06:04:28.914Z,13.42
2023-05-02T06:07:02.139Z,13.37
2023-05-02T06:09:33.548Z,13.33
2023-05-02T06:12:08.072Z,13.48
2023-05-02T06:14:39.368Z,13.66
2023-05-02T06:17:09.812Z,13.84
2023-05-02T06:19:40.394Z,14.00
2023-05-02T06:22:15.909Z,14.07
2023-05-02T06:24:46.547Z,14.10
2023-05-02T06:27:17.011Z,14.22
2023-05-02T06:29:47.675Z,14.44
2023-05-02T06:32:18.167Z,14.58
2023-05-02T06:34:48.978Z,14.87
2023-05-02T06:37:22.188Z,15.03
2023-05-02T06:39:52.726Z,15.10
2023-05-02T06:42:23.246Z,15.30
2023-05-02T06:44:54.757Z,15.37
2023-05-02T06:47:25.691Z,15.39
2023-05-02T06:49:55.896Z,15.43
2023-05-02T06:52:28.967Z,15.42
2023-05-02T06:54:59.427Z,15.53
2023-05-02T06:57:30.259Z,15.63
2023-05-02T07:00:00.926Z,15.62
2023-05-02T07:02:31.262Z,15.45
2023-05-02T07:05:01.875Z,15.39
2023-05-02T07:07:35.030Z,15.28
2023-05-02T07:10:06.169Z,15.03
2023-05-02T07:12:37.003Z,14.87
2023-05-02T07:15:10.533Z,14.89
2023-05-02T07:17:41.148Z,14.88
2023-05-02T07:20:15.802Z,14.89
2023-05-02T07:22:48.940Z,14.76
2023-05-02T07:25:19.708Z,14.82
2023-05-02T07:27:50.154Z,14.85
2023-05-02T07:30:20.655Z,14.88
2023-05-02T07:32:51.164Z,14.90
2023-05-02T07:35:21.852Z,14.84
2023-05-02T07:37:54.953Z,14.80
2023-05-02T07:40:25.522Z,14.74
2023-05-02T07:42:55.969Z,14.63
2023-05-02T07:45:26.605Z,14.67
2023-05-02T07:47:57.211Z,14.69
2023-05-02T07:50:27.954Z,14.72
2023-05-02T07:53:01.420Z,14.70
2023-05-02T07:55:33.433Z,14.84
2023-05-02T07:58:04.275Z,14.96
2023-05-02T08:00:34.771Z,15.04
2023-05-02T08:03:05.322Z,15.23
2023-05-02T08:05:36.342Z,15.37
2023-05-02T08:08:09.207Z,15.45
2023-05-02T08:10:39.708Z,15.60
2023-05-02T08:13:10.167Z,15.62
2023-05-02T08:15:40.628Z,15.76
2023-05-02T08:18:11.580Z,15.92
2023-05-02T08:20:41.767Z,16.01
2023-05-02T08:23:14.820Z,16.12
2023-05-02T08:25:45.570Z,16.10
2023-05-02T08:28:16.290Z,16.08
2023-05-02T08:30:47.200Z,15.95
2023-05-02T08:33:17.512Z,15.60
2023-05-02T08:35:48.093Z,15.41
2023-05-02T08:38:21.176Z,15.28
2023-05-02T08:40:51.962Z,15.44
2023-05-02T08:43:22.741Z,16.07
2023-05-02T08:45:57.686Z,16.09
2023-05-02T08:48:28.509Z,15.91
2023-05-02T08:50:59.252Z,15.79
2023-05-02T08:53:35.183Z,15.71
2023-05-02T08:56:06.391Z,15.67
2023-05-02T08:58:37.102Z,15.84
2023-05-02T09:01:16.582Z,16.13
2023-05-02T09:03:49.515Z,16.41
2023-05-02T09:06:22.114Z,17.20
2023-05-02T09:08:55.712Z,18.05
2023-05-02T09:11:27.430Z,18.27
2023-05-02T09:13:59.188Z,18.26
2023-05-02T09:16:30.133Z,18.17
2023-05-02T09:19:02.470Z,18.15
2023-05-02T09:21:41.546Z,17.97
2023-05-02T09:24:25.452Z,17.80
2023-05-02T09:27:03.232Z,17.69
2023-05-02T09:29:36.487Z,17.50
2023-05-02T09:32:08.599Z,17.49
2023-05-02T09:34:39.683Z,17.32
2023-05-02T09:37:12.789Z,16.99
2023-05-02T09:40:09.731Z,16.75
2023-05-02T09:42:40.711Z,16.61
2023-05-02T09:45:24.122Z,16.53
2023-05-02T09:47:56.179Z,16.35
2023-05-02T09:50:36.825Z,16.17
2023-05-02T09:53:09.736Z,16.07
2023-05-02T09:55:43.690Z,15.89
2023-05-02T09:58:25.859Z,15.87
2023-05-02T10:00:56.439Z,15.75
2023-05-02T10:03:29.282Z,15.79
2023-05-02T10:06:01.072Z,15.95
2023-05-02T10:08:32.819Z,16.19
2023-05-02T10:11:11.648Z,16.34
2023-05-02T10:13:44.538Z,16.48
2023-05-02T10:16:16.640Z,16.49
2023-05-02T10:18:55.891Z,16.69
2023-05-02T10:21:30.426Z,16.84
2023-05-02T10:24:01.291Z,16.97
2023-05-02T10:26:34.678Z,17.16
2023-05-02T10:29:05.861Z,17.70
2023-05-02T10:31:39.918Z,18.00
2023-05-02T10:34:13.689Z,18.29
2023-05-02T10:36:44.159Z,18.20
2023-05-02T10:39:16.207Z,18.05
2023-05-02T10:41:49.651Z,17.71
2023-05-02T10:44:20.191Z,17.67
2023-05-02T10:46:51.479Z,17.74
2023-05-02T10:49:27.524Z,17.78
2023-05-02T10:51:58.587Z,17.71
2023-05-02T10:54:29.472Z,18.08
2023-05-02T10:57:11.426Z,18.98
2023-05-02T10:59:43.044Z,19.05
2023-05-02T11:02:51.924Z,19.25
2023-05-02T11:05:22.778Z,19.28
2023-05-02T11:07:53.166Z,19.47
2023-05-02T11:10:31.612Z,20.39
2023-05-02T11:13:04.870Z,20.28
2023-05-02T11:16:02.382Z,20.13
2023-05-02T11:19:02.254Z,20.20
2023-05-02T11:21:34.117Z,20.46
2023-05-02T11:24:41.207Z,20.85
2023-05-02T11:27:44.230Z,20.99
2023-05-02T11:30:17.407Z,21.08
2023-05-02T11:33:20.430Z,21.22
2023-05-02T11:35:52.107Z,21.03
2023-05-02T11:38:24.457Z,20.93
2023-05-02T11:41:00.945Z,20.82
2023-05-02T11:43:32.918Z,21.03
2023-05-02T11:46:06.218Z,20.95
2023-05-02T11:48:36.763Z,20.69
2023-05-02T11:51:07.752Z,20.80
2023-05-02T11:53:44.292Z,20.67
2023-05-02T11:56:14.958Z,20.49
2023-05-02T11:58:47.183Z,21.64
2023-05-02T12:01:20.416Z,23.14
2023-05-02T12:03:52.846Z,24.45
2023-05-02T12:06:23.636Z,23.87
2023-05-02T12:08:55.831Z,23.01
2023-05-02T12:11:27.196Z,22.55
2023-05-02T12:13:58.445Z,22.19
2023-05-02T12:16:31.883Z,22.82
2023-05-02T12:19:03.191Z,23.03
2023-05-02T12:21:34.597Z,23.26
2023-05-02T12:24:05.543Z,23.26
2023-05-02T12:26:36.065Z,22.37
2023-05-02T12:29:08.923Z,21.82
2023-05-02T12:31:42.141Z,21.53
2023-05-02T12:34:12.893Z,21.49
2023-05-02T12:36:48.227Z,21.43
2023-05-02T12:39:18.746Z,23.23
2023-05-02T12:41:49.050Z,24.97
2023-05-02T12:44:38.940Z,25.07
2023-05-02T12:47:16.324Z,25.76
2023-05-02T12:49:53.744Z,25.44
2023-05-02T12:52:29.727Z,24.59
2023-05-02T12:55:25.588Z,25.74
2023-05-02T12:58:04.511Z,25.15
2023-05-02T13:00:36.522Z,25.03
2023-05-02T13:03:10.526Z,26.84
2023-05-02T13:05:41.404Z,28.57
2023-05-02T13:08:11.899Z,27.60
2023-05-02T13:10:42.446Z,26.84
2023-05-02T13:13:12.944Z,25.62
2023-05-02T13:15:43.428Z,24.47
2023-05-02T13:18:16.644Z,24.00
2023-05-02T13:20:50.089Z,23.48
2023-05-02T13:23:20.605Z,22.83
2023-05-02T13:25:51.207Z,22.21
2023-05-02T13:28:21.414Z,21.75
2023-05-02T13:30:51.971Z,21.38
2023-05-02T13:33:24.757Z,21.11
2023-05-02T13:35:55.257Z,22.01
2023-05-02T13:38:25.714Z,21.52
2023-05-02T13:40:56.932Z,21.04
2023-05-02T13:43:27.774Z,21.14
2023-05-02T13:45:58.355Z,23.07
2023-05-02T13:48:31.149Z,25.25
2023-05-02T13:51:01.649Z,26.74
2023-05-02T13:53:31.826Z,27.30
2023-05-02T13:56:02.487Z,26.47
2023-05-02T13:58:32.979Z,25.05
2023-05-02T14:01:03.604Z,23.81
2023-05-02T14:03:36.970Z,22.82
2023-05-02T14:06:07.843Z,22.02
2023-05-02T14:08:38.616Z,21.30
2023-05-02T14:11:09.204Z,20.79
2023-05-02T14:13:39.356Z,20.13
2023-05-02T14:16:09.953Z,19.51
2023-05-02T14:18:42.794Z,18.95
2023-05-02T14:21:13.364Z,18.50
2023-05-02T14:23:43.918Z,18.20
2023-05-02T14:26:15.494Z,17.89
2023-05-02T14:28:46.583Z,17.74
2023-05-02T14:31:17.196Z,18.04
2023-05-02T14:33:50.403Z,18.11
2023-05-02T14:36:20.970Z,18.07
2023-05-02T14:38:51.572Z,18.12
2023-05-02T14:41:22.416Z,18.22
2023-05-02T14:43:54.386Z,18.51
2023-05-02T14:46:25.304Z,18.25
2023-05-02T14:48:58.067Z,18.00
2023-05-02T14:51:28.520Z,17.95
2023-05-02T14:53:58.965Z,17.85
2023-05-02T14:56:29.548Z,17.61
2023-05-02T14:59:00.078Z,17.28
2023-05-02T15:01:30.974Z,17.17
2023-05-02T15:04:06.648Z,17.06
2023-05-02T15:06:38.504Z,16.95
2023-05-02T15:09:12.158Z,16.70
2023-05-02T15:11:42.764Z,16.57
2023-05-02T15:14:13.317Z,16.36
2023-05-02T15:16:43.816Z,16.37
2023-05-02T15:19:17.141Z,16.24
2023-05-02T15:21:47.542Z,16.18
2023-05-02T15:24:17.981Z,16.06
2023-05-02T15:26:49.464Z,15.93
2023-05-02T15:29:20.143Z,15.87
2023-05-02T15:31:50.602Z,15.81
2023-05-02T15:34:27.128Z,15.73
2023-05-02T15:36:58.039Z,15.70
2023-05-02T15:39:28.292Z,15.62
2023-05-02T15:41:58.764Z,15.54
2023-05-02T15:44:29.184Z,15.55
2023-05-02T15:46:59.472Z,15.55
2023-05-02T15:49:34.611Z,15.56
2023-05-02T15:52:05.999Z,15.60
2023-05-02T15:54:37.506Z,15.49
2023-05-02T15:57:08.316Z,15.43
2023-05-02T15:59:38.493Z,15.45
2023-05-02T16:02:08.753Z,15.38
2023-05-02T16:04:43.221Z,15.33
2023-05-02T16:07:13.620Z,15.22
2023-05-02T16:09:43.909Z,15.20
2023-05-02T16:12:14.897Z,15.16
2023-05-02T16:14:47.282Z,15.16
2023-05-02T16:17:17.451Z,15.17
2023-05-02T16:19:50.237Z,15.16
2023-05-02T16:22:20.711Z,15.14
2023-05-02T16:24:50.942Z,15.11
2023-05-02T16:27:21.154Z,15.07
2023-05-02T16:29:51.420Z,14.98
2023-05-02T16:32:23.469Z,14.95
2023-05-02T16:34:56.610Z,14.94
2023-05-02T16:37:26.827Z,14.85
2023-05-02T16:39:58.038Z,14.75
2023-05-02T16:42:28.275Z,14.75
2023-05-02T16:44:59.569Z,14.69
2023-05-02T16:47:29.960Z,14.80
2023-05-02T16:50:03.590Z,14.78
2023-05-02T16:52:36.703Z,14.80
2023-05-02T16:55:07.834Z,14.85
2023-05-02T16:57:39.214Z,14.85
2023-05-02T17:00:15.089Z,14.90
2023-05-02T17:02:45.489Z,14.99
2023-05-02T17:05:20.286Z,15.12
2023-05-02T17:07:50.414Z,15.22
2023-05-02T17:10:21.421Z,15.32
2023-05-02T17:12:51.731Z,15.27
2023-05-02T17:15:24.031Z,15.24
2023-05-02T17:17:54.330Z,15.13
2023-05-02T17:20:27.432Z,15.11
2023-05-02T17:22:58.004Z,15.13
2023-05-02T17:25:28.357Z,15.10
2023-05-02T17:27:58.650Z,14.92
2023-05-02T17:30:29.565Z,14.81
2023-05-02T17:33:00.288Z,14.71
2023-05-02T17:35:33.336Z,14.70
2023-05-02T17:38:03.606Z,14.67
2023-05-02T17:40:35.391Z,14.61
2023-05-02T17:43:06.920Z,14.60
2023-05-02T17:45:39.602Z,14.53
2023-05-02T17:48:09.870Z,14.50
2023-05-02T17:50:44.023Z,14.48
2023-05-02T17:53:15.774Z,14.46
2023-05-02T17:55:46.024Z,14.49
2023-05-02T17:58:16.340Z,14.51
2023-05-02T18:00:46.680Z,14.54
2023-05-02T18:03:18.043Z,14.56
2023-05-02T18:05:51.160Z,14.48
2023-05-02T18:08:21.398Z,14.41
2023-05-02T18:10:51.717Z,14.29
2023-05-02T18:13:25.125Z,14.23
2023-05-02T18:16:00.446Z,14.20
2023-05-02T18:18:30.696Z,14.15
2023-05-02T18:21:03.769Z,14.12
2023-05-02T18:23:34.097Z,14.08
2023-05-02T18:26:04.527Z,14.12
2023-05-02T18:28:35.565Z,14.12
2023-05-02T18:31:08.728Z,14.07
2023-05-02T18:33:38.860Z,14.04
2023-05-02T18:36:13.724Z,14.02
2023-05-02T18:38:43.864Z,13.99
2023-05-02T18:41:14.079Z,13.96
2023-05-02T18:43:44.355Z,13.94
2023-05-02T18:46:17.746Z,13.90
2023-05-02T18:48:48.523Z,13.92
2023-05-02T18:51:21.875Z,13.91
2023-05-02T18:53:52.207Z,13.92
2023-05-02T18:56:22.356Z,13.93
2023-05-02T18:58:56.532Z,13.93
2023-05-02T19:01:31.046Z,13.91
2023-05-02T19:04:03.242Z,13.91
2023-05-02T19:06:36.297Z,13.91
2023-05-02T19:09:06.564Z,13.84
2023-05-02T19:11:36.909Z,13.80
2023-05-02T19:14:07.382Z,13.77
2023-05-02T19:16:41.292Z,13.70
2023-05-02T19:19:11.562Z,13.69
2023-05-02T19:21:45.959Z,13.65
2023-05-02T19:24:17.031Z,13.53
2023-05-02T19:26:47.345Z,13.48
2023-05-02T19:29:17.697Z,13.45
2023-05-02T19:31:47.990Z,13.35
2023-05-02T19:34:20.940Z,13.25
2023-05-02T19:36:59.643Z,13.20
2023-05-02T19:39:29.754Z,13.11
2023-05-02T19:42:00.010Z,13.06
2023-05-02T19:44:30.410Z,12.97
2023-05-02T19:47:03.592Z,12.91
2023-05-02T19:49:33.784Z,12.81
2023-05-02T19:52:07.772Z,12.76
2023-05-02T19:54:37.991Z,12.73
2023-05-02T19:57:08.261Z,12.70
2023-05-02T19:59:38.489Z,12.68
2023-05-02T20:02:09.648Z,12.71
2023-05-02T20:04:39.892Z,12.75
2023-05-02T20:07:12.638Z,12.66
2023-05-02T20:09:46.546Z,12.73
2023-05-02T20:12:18.639Z,12.84
2023-05-02T20:14:48.784Z,12.90
2023-05-02T20:17:18.934Z,12.92
2023-05-02T20:19:49.042Z,12.94
2023-05-02T20:22:21.856Z,12.98
2023-05-02T20:24:52.122Z,12.99
2023-05-02T20:27:22.282Z,12.91
2023-05-02T20:29:52.496Z,12.91
2023-05-02T20:32:22.758Z,12.96
2023-05-02T20:34:53.073Z,13.00
2023-05-02T20:37:26.024Z,12.97
2023-05-02T20:39:56.214Z,13.01
2023-05-02T20:42:27.533Z,13.00
2023-05-02T20:44:58.756Z,13.00
2023-05-02T20:47:30.312Z,13.00
2023-05-02T20:50:00.823Z,13.03
2023-05-02T20:52:33.978Z,13.02
2023-05-02T20:55:04.487Z,13.02
2023-05-02T20:57:34.709Z,13.01
2023-05-02T21:00:05.162Z,12.99
2023-05-02T21:02:35.529Z,12.92
2023-05-02T21:05:05.616Z,12.91
2023-05-02T21:07:40.589Z,12.94
2023-05-02T21:10:12.332Z,12.87
2023-05-02T21:12:42.549Z,12.90
2023-05-02T21:15:14.565Z,12.86
2023-05-02T21:17:44.876Z,12.87
2023-05-02T21:20:16.236Z,12.91
2023-05-02T21:22:48.983Z,12.95
2023-05-02T21:25:19.341Z,12.98
2023-05-02T21:27:49.513Z,13.01
2023-05-02T21:30:19.689Z,13.01
2023-05-02T21:32:49.866Z,13.04
2023-05-02T21:35:20.295Z,13.07
2023-05-02T21:37:53.205Z,13.11
2023-05-02T21:40:23.321Z,13.13
2023-05-02T21:42:53.436Z,13.15
2023-05-02T21:45:23.581Z,13.17
2023-05-02T21:47:54.402Z,13.13
2023-05-02T21:50:24.832Z,13.05
2023-05-02T21:52:57.560Z,12.91
2023-05-02T21:55:27.944Z,12.86
2023-05-02T21:57:58.321Z,12.81
2023-05-02T22:00:28.655Z,12.84
2023-05-02T22:02:58.991Z,12.80
2023-05-02T22:05:29.469Z,12.78
2023-05-02T22:08:02.303Z,12.75
2023-05-02T22:10:33.471Z,12.75
2023-05-02T22:13:03.662Z,12.77
2023-05-02T22:15:34.193Z,12.68
2023-05-02T22:18:07.231Z,12.71
2023-05-02T22:20:38.236Z,12.72
2023-05-02T22:23:11.150Z,12.66
2023-05-02T22:25:42.952Z,12.62
2023-05-02T22:28:14.074Z,12.54
2023-05-02T22:30:45.613Z,12.49
2023-05-02T22:33:15.925Z,12.44
2023-05-02T22:35:46.187Z,12.45
2023-05-02T22:38:20.310Z,12.42
2023-05-02T22:40:50.802Z,12.31
2023-05-02T22:43:20.976Z,12.17
2023-05-02T22:45:51.498Z,12.16
2023-05-02T22:48:22.059Z,12.07
2023-05-02T22:50:52.359Z,11.87
2023-05-02T22:53:26.291Z,11.84
2023-05-02T22:55:56.870Z,11.84
2023-05-02T22:58:27.091Z,11.83
2023-05-02T23:00:57.395Z,11.85
2023-05-02T23:03:27.698Z,11.89
2023-05-02T23:05:57.892Z,11.96
2023-05-02T23:08:30.678Z,11.94
2023-05-02T23:11:00.865Z,11.98
2023-05-02T23:13:31.165Z,12.01
2023-05-02T23:16:01.898Z,11.97
2023-05-02T23:18:32.114Z,11.92
2023-05-02T23:21:02.510Z,11.87
2023-05-02T23:23:35.261Z,11.85
2023-05-02T23:26:05.353Z,11.84
2023-05-02T23:28:35.471Z,11.78
2023-05-02T23:31:07.116Z,11.72
2023-05-02T23:33:38.003Z,11.73
2023-05-02T23:36:09.653Z,11.68
2023-05-02T23:38:43.444Z,11.66
2023-05-02T23:41:13.645Z,11.54
2023-05-02T23:43:43.978Z,11.56
2023-05-02T23:46:14.207Z,11.44
2023-05-02T23:48:44.330Z,11.51
2023-05-02T23:51:14.915Z,11.46
2023-05-02T23:53:47.678Z,11.47
2023-05-02T23:56:18.156Z,11.47
2023-05-02T23:58:51.432Z,11.48
